createdAt,value
2023-04-19T00:01:25.159Z,100691.47
2023-04-19T00:03:56.315Z,100679.81
2023-04-19T00:06:25.797Z,100666.72
2023-04-19T00:08:54.132Z,100690.41
2023-04-19T00:11:22.473Z,100677.34
2023-04-19T00:13:50.892Z,100673.09
2023-04-19T00:16:19.405Z,100679.19
2023-04-19T00:18:48.674Z,100672.03
2023-04-19T00:21:18.402Z,100679.81
2023-04-19T00:23:46.772Z,100681.84
2023-04-19T00:26:15.857Z,100672.88
2023-04-19T00:28:49.065Z,100664.31
2023-04-19T00:31:17.483Z,100675.97
2023-04-19T00:33:45.844Z,100681.47
2023-04-19T00:36:14.349Z,100684.81
2023-04-19T00:38:44.081Z,100676.03
2023-04-19T00:41:12.470Z,100671.78
2023-04-19T00:43:40.926Z,100675.44
2023-04-19T00:46:09.304Z,100673.00
2023-04-19T00:48:37.955Z,100675.66
2023-04-19T00:51:06.694Z,100679.94
2023-04-19T00:53:35.967Z,100666.66
2023-04-19T00:56:06.864Z,100664.44
2023-04-19T00:58:35.352Z,100667.09
2023-04-19T01:01:04.672Z,100667.09
2023-04-19T01:03:35.057Z,100660.19
2023-04-19T01:06:03.821Z,100657.28
2023-04-19T01:08:32.232Z,100658.13
2023-04-19T01:11:00.889Z,100658.13
2023-04-19T01:13:30.657Z,100645.88
2023-04-19T01:15:59.564Z,100651.19
2023-04-19T01:18:32.967Z,100650.59
2023-04-19T01:21:01.408Z,100652.09
2023-04-19T01:23:31.407Z,100654.72
2023-04-19T01:26:01.266Z,100644.13
2023-04-19T01:28:30.107Z,100641.47
2023-04-19T01:30:58.536Z,100649.44
2023-04-19T01:33:28.053Z,100643.50
2023-04-19T01:35:56.479Z,100633.94
2023-04-19T01:38:24.953Z,100641.09
2023-04-19T01:40:56.849Z,100636.00
2023-04-19T01:43:26.409Z,100634.94
2023-04-19T01:45:54.854Z,100633.56
2023-04-19T01:48:23.297Z,100634.59
2023-04-19T01:50:51.681Z,100629.88
2023-04-19T01:53:20.150Z,100628.25
2023-04-19T01:55:48.602Z,100622.97
2023-04-19T01:58:18.356Z,100628.03
2023-04-19T02:00:47.426Z,100625.19
2023-04-19T02:03:16.080Z,100625.53
2023-04-19T02:05:44.640Z,100614.94
2023-04-19T02:08:12.999Z,100619.19
2023-04-19T02:10:41.367Z,100603.28
2023-04-19T02:13:09.814Z,100615.50
2023-04-19T02:15:39.888Z,100610.19
2023-04-19T02:18:08.539Z,100596.94
2023-04-19T02:20:37.012Z,100608.59
2023-04-19T02:23:05.650Z,100594.72
2023-04-19T02:25:35.754Z,100612.47
2023-04-19T02:28:04.244Z,100599.44
2023-04-19T02:30:33.413Z,100596.19
2023-04-19T02:33:04.074Z,100597.22
2023-04-19T02:35:32.620Z,100591.13
2023-04-19T02:38:01.299Z,100589.50
2023-04-19T02:40:29.738Z,100583.38
2023-04-19T02:43:00.413Z,100589.50
2023-04-19T02:45:28.767Z,100588.91
2023-04-19T02:47:57.469Z,100581.97
2023-04-19T02:50:28.962Z,100586.66
2023-04-19T02:52:58.967Z,100577.66
2023-04-19T02:55:29.952Z,100578.69
2023-04-19T02:58:06.898Z,100582.78
2023-04-19T03:00:40.960Z,100580.13
2023-04-19T03:03:14.462Z,100573.19
2023-04-19T03:05:44.370Z,100570.53
2023-04-19T03:08:12.765Z,100572.19
2023-04-19T03:10:41.426Z,100563.41
2023-04-19T03:13:10.880Z,100566.06
2023-04-19T03:15:39.228Z,100567.03
2023-04-19T03:18:07.956Z,100565.22
2023-04-19T03:20:38.499Z,100570.75
2023-04-19T03:23:08.967Z,100569.69
2023-04-19T03:25:37.949Z,100559.31
2023-04-19T03:28:29.826Z,100556.91
2023-04-19T03:31:16.596Z,100547.31
2023-04-19T03:33:46.345Z,100553.88
2023-04-19T03:36:15.183Z,100548.56
2023-04-19T03:38:46.898Z,100541.06
2023-04-19T03:41:20.764Z,100545.56
2023-04-19T03:43:52.841Z,100540.25
2023-04-19T03:46:21.436Z,100534.09
2023-04-19T03:48:51.327Z,100542.28
2023-04-19T03:51:21.136Z,100541.94
2023-04-19T03:53:50.885Z,100538.09
2023-04-19T03:56:21.060Z,100538.53
2023-04-19T03:58:52.365Z,100536.94
2023-04-19T04:01:21.480Z,100540.00
2023-04-19T04:03:51.738Z,100544.50
2023-04-19T04:06:20.583Z,100544.94
2023-04-19T04:08:50.662Z,100547.84
2023-04-19T04:11:19.036Z,100546.19
2023-04-19T04:13:50.521Z,100546.78
2023-04-19T04:16:24.006Z,100553.94
2023-04-19T04:18:54.361Z,100553.13
2023-04-19T04:21:27.260Z,100544.13
2023-04-19T04:24:02.020Z,100553.13
2023-04-19T04:26:40.955Z,100551.28
2023-04-19T04:29:19.921Z,100550.47
2023-04-19T04:31:50.863Z,100557.41
2023-04-19T04:34:22.921Z,100559.25
2023-04-19T04:36:56.903Z,100554.75
2023-04-19T04:39:28.183Z,100564.53
2023-04-19T04:41:57.803Z,100556.59
2023-04-19T04:44:27.966Z,100553.72
2023-04-19T04:46:56.907Z,100556.34
2023-04-19T04:49:29.125Z,100556.34
2023-04-19T04:51:59.613Z,100549.44
2023-04-19T04:54:31.892Z,100552.09
2023-04-19T04:57:01.018Z,100554.75
2023-04-19T04:59:29.463Z,100549.66
2023-04-19T05:01:59.197Z,100547.22
2023-04-19T05:04:27.853Z,100549.06
2023-04-19T05:06:56.215Z,100552.53
2023-04-19T05:09:27.615Z,100548.25
2023-04-19T05:11:57.407Z,100545.00
2023-04-19T05:14:26.461Z,100548.09
2023-04-19T05:16:54.826Z,100547.53
2023-04-19T05:19:23.294Z,100545.88
2023-04-19T05:21:57.767Z,100548.53
2023-04-19T05:24:26.133Z,100552.22
2023-04-19T05:26:56.768Z,100547.94
2023-04-19T05:29:26.078Z,100550.59
2023-04-19T05:31:57.160Z,100549.81
2023-04-19T05:34:34.888Z,100540.19
2023-04-19T05:37:05.128Z,100540.19
2023-04-19T05:39:33.655Z,100546.41
2023-04-19T05:42:03.365Z,100542.34
2023-04-19T05:44:32.019Z,100537.84
2023-04-19T05:47:00.709Z,100534.16
2023-04-19T05:49:58.731Z,100531.72
2023-04-19T05:52:32.285Z,100530.69
2023-04-19T05:55:02.517Z,100534.75
2023-04-19T05:57:32.808Z,100537.78
2023-04-19T06:00:02.443Z,100527.97
2023-04-19T06:02:41.872Z,100533.88
2023-04-19T06:05:13.977Z,100534.69
2023-04-19T06:07:47.364Z,100536.09
2023-04-19T06:10:22.782Z,100528.97
2023-04-19T06:12:52.566Z,100516.50
2023-04-19T06:15:21.365Z,100531.38
2023-04-19T06:17:49.762Z,100535.88
2023-04-19T06:20:18.332Z,100525.88
2023-04-19T06:22:47.234Z,100532.19
2023-04-19T06:25:15.682Z,100531.56
2023-04-19T06:27:44.029Z,100527.63
2023-04-19T06:30:14.310Z,100530.06
2023-04-19T06:32:42.654Z,100529.84
2023-04-19T06:35:11.262Z,100527.78
2023-04-19T06:37:39.644Z,100529.16
2023-04-19T06:40:09.749Z,100515.09
2023-04-19T06:42:38.197Z,100516.28
2023-04-19T06:45:09.641Z,100528.31
2023-04-19T06:47:39.423Z,100537.06
2023-04-19T06:50:09.653Z,100542.97
2023-04-19T06:52:38.307Z,100543.78
2023-04-19T06:55:08.051Z,100547.22
2023-04-19T06:57:36.439Z,100535.00
2023-04-19T07:00:06.744Z,100537.22
2023-04-19T07:02:35.111Z,100537.00
2023-04-19T07:05:05.480Z,100540.25
2023-04-19T07:07:33.870Z,100550.19
2023-04-19T07:10:02.301Z,100539.34
2023-04-19T07:12:30.728Z,100547.91
2023-04-19T07:14:59.077Z,100545.81
2023-04-19T07:17:27.470Z,100549.91
2023-04-19T07:20:02.419Z,100548.66
2023-04-19T07:22:32.276Z,100546.38
2023-04-19T07:25:00.961Z,100544.09
2023-04-19T07:27:29.483Z,100537.06
2023-04-19T07:29:57.856Z,100539.28
2023-04-19T07:32:26.374Z,100532.50
2023-04-19T07:34:54.816Z,100539.81
2023-04-19T07:37:23.148Z,100534.50
2023-04-19T07:39:52.939Z,100533.47
2023-04-19T07:42:21.296Z,100529.75
2023-04-19T07:44:49.835Z,100511.97
2023-04-19T07:47:18.188Z,100517.28
2023-04-19T07:49:46.572Z,100517.28
2023-04-19T07:52:15.006Z,100518.47
2023-04-19T07:54:43.462Z,100524.38
2023-04-19T07:57:13.156Z,100520.66
2023-04-19T07:59:41.683Z,100516.97
2023-04-19T08:02:10.153Z,100512.25
2023-04-19T08:04:39.924Z,100506.16
2023-04-19T08:07:09.551Z,100514.22
2023-04-19T08:09:38.841Z,100504.41
2023-04-19T08:12:07.992Z,100510.31
2023-04-19T08:14:51.572Z,100511.94
2023-04-19T08:17:32.647Z,100506.41
2023-04-19T08:20:06.836Z,100500.66
2023-04-19T08:22:35.219Z,100495.72
2023-04-19T08:25:03.796Z,100502.19
2023-04-19T08:27:32.182Z,100508.66
2023-04-19T08:30:01.935Z,100500.44
2023-04-19T08:32:30.365Z,100502.41
2023-04-19T08:34:58.894Z,100505.66
2023-04-19T08:37:27.369Z,100507.06
2023-04-19T08:39:55.749Z,100502.31
2023-04-19T08:42:33.249Z,100494.94
2023-04-19T08:47:56.105Z,100488.72
2023-04-19T08:50:34.621Z,100490.09
2023-04-19T08:53:23.954Z,100485.94
2023-04-19T08:58:45.811Z,100490.13
2023-04-19T09:01:34.740Z,100475.56
2023-04-19T09:04:17.289Z,100476.16
2023-04-19T09:06:55.349Z,100480.22
2023-04-19T09:11:57.450Z,100470.75
2023-04-19T09:14:28.875Z,100487.06
2023-04-19T09:17:16.857Z,100459.44
2023-04-19T09:19:49.493Z,100472.28
2023-04-19T09:22:18.271Z,100464.84
2023-04-19T09:25:24.055Z,100460.69
2023-04-19T09:27:37.460Z,100469.25
2023-04-19T09:30:14.806Z,100467.19
2023-04-19T09:32:50.991Z,100461.88
2023-04-19T09:35:19.439Z,100457.34
2023-04-19T09:38:06.452Z,100450.41
2023-04-19T09:40:35.214Z,100450.19
2023-04-19T09:45:43.575Z,100447.88
2023-04-19T09:48:14.439Z,100447.63
2023-04-19T09:51:02.694Z,100442.78
2023-04-19T09:53:35.224Z,100454.91
2023-04-19T09:56:05.415Z,100450.41
2023-04-19T09:58:48.952Z,100443.72
2023-04-19T10:01:22.694Z,100456.41
2023-04-19T10:03:53.438Z,100451.34
2023-04-19T10:08:55.974Z,100446.84
2023-04-19T10:11:26.830Z,100451.56
2023-04-19T10:13:58.771Z,100453.03
2023-04-19T10:16:28.136Z,100446.13
2023-04-19T10:18:58.831Z,100444.28
2023-04-19T10:21:29.506Z,100435.72
2023-04-19T10:23:58.611Z,100448.19
2023-04-19T10:26:27.173Z,100442.06
2023-04-19T10:28:57.571Z,100450.03
2023-04-19T10:31:27.971Z,100442.31
2023-04-19T10:33:58.387Z,100436.16
2023-04-19T10:36:29.796Z,100433.50
2023-04-19T10:38:58.238Z,100428.44
2023-04-19T10:41:59.514Z,100423.38
2023-04-19T10:44:27.977Z,100411.78
2023-04-19T10:46:56.450Z,100410.28
2023-04-19T10:49:27.165Z,100401.88
2023-04-19T10:51:56.210Z,100395.31
2023-04-19T10:54:37.527Z,100390.56
2023-04-19T10:57:07.063Z,100373.34
2023-04-19T10:59:36.626Z,100375.06
2023-04-19T11:02:06.753Z,100379.22
2023-04-19T11:05:04.683Z,100371.13
2023-04-19T11:07:43.782Z,100361.72
2023-04-19T11:10:12.768Z,100359.19
2023-04-19T11:12:45.888Z,100357.41
2023-04-19T11:15:14.262Z,100351.41
2023-04-19T11:17:42.904Z,100349.88
2023-04-19T11:20:14.618Z,100342.00
2023-04-19T11:22:45.614Z,100342.06
2023-04-19T11:25:16.640Z,100337.69
2023-04-19T11:27:46.566Z,100335.34
2023-04-19T11:30:19.471Z,100337.06
2023-04-19T11:32:50.082Z,100325.94
2023-04-19T11:35:23.203Z,100320.97
2023-04-19T11:37:52.345Z,100321.25
2023-04-19T11:40:22.866Z,100310.38
2023-04-19T11:42:56.957Z,100309.09
2023-04-19T11:45:32.047Z,100295.09
2023-04-19T11:48:02.347Z,100292.78
2023-04-19T11:50:38.821Z,100290.19
2023-04-19T11:53:16.837Z,100292.13
2023-04-19T11:55:47.404Z,100282.63
2023-04-19T11:58:29.990Z,100276.81
2023-04-19T12:01:00.927Z,100278.97
2023-04-19T12:03:29.637Z,100257.44
2023-04-19T12:06:03.663Z,100265.50
2023-04-19T12:08:34.555Z,100259.44
2023-04-19T12:11:04.189Z,100260.59
2023-04-19T12:13:33.399Z,100259.84
2023-04-19T12:16:02.578Z,100263.03
2023-04-19T12:18:45.542Z,100252.16
2023-04-19T12:21:27.432Z,100248.53
2023-04-19T12:23:58.027Z,100245.13
2023-04-19T12:26:27.004Z,100249.13
2023-04-19T12:28:55.912Z,100246.78
2023-04-19T12:31:24.362Z,100234.34
2023-04-19T12:33:52.719Z,100223.44
2023-04-19T12:36:22.414Z,100229.91
2023-04-19T12:38:50.750Z,100228.59
2023-04-19T12:41:19.348Z,100231.25
2023-04-19T12:43:47.755Z,100229.41
2023-04-19T12:46:16.112Z,100218.72
2023-04-19T12:48:44.491Z,100214.56
2023-04-19T12:51:12.849Z,100222.59
2023-04-19T12:53:43.461Z,100215.13
2023-04-19T12:56:12.383Z,100220.78
2023-04-19T12:58:40.731Z,100217.13
2023-04-19T13:01:09.197Z,100212.91
2023-04-19T13:03:37.889Z,100211.03
2023-04-19T13:06:07.507Z,100211.81
2023-04-19T13:08:44.578Z,100206.28
2023-04-19T13:11:17.892Z,100197.53
2023-04-19T13:13:46.320Z,100194.91
2023-04-19T13:16:14.691Z,100190.97
2023-04-19T13:18:43.094Z,100184.66
2023-04-19T13:21:11.432Z,100195.13
2023-04-19T13:23:39.794Z,100197.28
2023-04-19T13:26:08.342Z,100188.50
2023-04-19T13:28:38.244Z,100182.59
2023-04-19T13:31:06.996Z,100180.50
2023-04-19T13:33:35.726Z,100179.66
2023-04-19T13:36:04.484Z,100175.94
2023-04-19T13:38:32.897Z,100170.34
2023-04-19T13:41:01.698Z,100173.59
2023-04-19T13:43:30.110Z,100168.25
2023-04-19T13:45:59.924Z,100155.16
2023-04-19T13:48:29.135Z,100154.13
2023-04-19T13:50:58.122Z,100149.53
2023-04-19T13:53:29.097Z,100149.00
2023-04-19T13:55:58.076Z,100146.31
2023-04-19T13:58:26.772Z,100147.94
2023-04-19T14:00:55.483Z,100144.47
2023-04-19T14:03:26.844Z,100140.72
2023-04-19T14:05:55.457Z,100144.47
2023-04-19T14:08:23.988Z,100135.66
2023-04-19T14:10:52.639Z,100142.09
2023-04-19T14:13:21.093Z,100134.09
2023-04-19T14:15:49.430Z,100140.50
2023-04-19T14:18:17.810Z,100131.94
2023-04-19T14:20:47.574Z,100128.69
2023-04-19T14:23:15.933Z,100128.69
2023-04-19T14:25:44.333Z,100119.09
2023-04-19T14:28:13.521Z,100133.00
2023-04-19T14:30:42.039Z,100128.69
2023-04-19T14:33:11.004Z,100122.03
2023-04-19T14:35:39.707Z,100129.53
2023-04-19T14:38:09.576Z,100127.09
2023-04-19T14:40:38.131Z,100121.53
2023-04-19T14:43:06.684Z,100117.22
2023-04-19T14:45:35.138Z,100121.53
2023-04-19T14:48:03.836Z,100113.75
2023-04-19T14:50:32.243Z,100113.75
2023-04-19T14:53:00.674Z,100117.22
2023-04-19T14:55:30.503Z,100126.84
2023-04-19T14:57:58.947Z,100113.75
2023-04-19T15:00:28.660Z,100110.28
2023-04-19T15:02:57.711Z,100115.88
2023-04-19T15:05:28.625Z,100107.91
2023-04-19T15:07:57.233Z,100097.22
2023-04-19T15:10:25.641Z,100104.97
2023-04-19T15:12:56.138Z,100111.34
2023-04-19T15:15:24.535Z,100112.16
2023-04-19T15:17:52.916Z,100101.72
2023-04-19T15:20:21.564Z,100106.53
2023-04-19T15:22:49.933Z,100103.06
2023-04-19T15:25:18.690Z,100092.41
2023-04-19T15:27:47.033Z,100115.31
2023-04-19T15:30:16.904Z,100107.31
2023-04-19T15:32:45.948Z,100098.25
2023-04-19T15:35:14.542Z,100102.56
2023-04-19T15:37:43.862Z,100128.66
2023-04-19T15:40:14.457Z,100101.72
2023-04-19T15:42:42.822Z,100117.72
2023-04-19T15:45:12.057Z,100089.72
2023-04-19T15:47:41.754Z,100111.28
2023-04-19T15:50:10.832Z,100109.41
2023-04-19T15:52:39.181Z,100108.28
2023-04-19T15:55:08.280Z,100115.50
2023-04-19T15:57:36.636Z,100111.53
2023-04-19T16:00:09.350Z,100120.06
2023-04-19T16:02:42.261Z,100113.94
2023-04-19T16:05:11.086Z,100107.22
2023-04-19T16:07:39.403Z,100121.91
2023-04-19T16:10:08.877Z,100120.56
2023-04-19T16:12:37.491Z,100132.56
2023-04-19T16:15:07.467Z,100130.06
2023-04-19T16:17:35.884Z,100130.00
2023-04-19T16:20:06.885Z,100123.00
2023-04-19T16:22:35.224Z,100131.50
2023-04-19T16:25:03.585Z,100134.38
2023-04-19T16:27:31.904Z,100130.63
2023-04-19T16:30:00.384Z,100134.63
2023-04-19T16:32:28.960Z,100135.34
2023-04-19T16:34:57.348Z,100141.41
2023-04-19T16:37:27.118Z,100134.19
2023-04-19T16:39:55.520Z,100140.22
2023-04-19T16:42:23.868Z,100139.13
2023-04-19T16:44:52.337Z,100140.69
2023-04-19T16:47:21.899Z,100143.03
2023-04-19T16:49:50.622Z,100140.06
2023-04-19T16:52:19.003Z,100137.88
2023-04-19T16:54:48.674Z,100146.63
2023-04-19T16:57:17.320Z,100143.66
2023-04-19T16:59:45.714Z,100138.81
2023-04-19T17:02:14.425Z,100144.63
2023-04-19T17:04:43.459Z,100138.75
2023-04-19T17:07:12.737Z,100140.31
2023-04-19T17:09:41.110Z,100142.66
2023-04-19T17:12:10.978Z,100138.06
2023-04-19T17:14:41.036Z,100137.50
2023-04-19T17:17:09.642Z,100137.19
2023-04-19T17:19:38.220Z,100144.84
2023-04-19T17:22:07.144Z,100145.34
2023-04-19T17:24:35.605Z,100143.41
2023-04-19T17:27:03.943Z,100148.38
2023-04-19T17:29:33.766Z,100149.13
2023-04-19T17:32:02.288Z,100155.16
2023-04-19T17:34:30.649Z,100155.09
2023-04-19T17:36:59.509Z,100157.44
2023-04-19T17:39:28.982Z,100151.22
2023-04-19T17:41:57.694Z,100155.41
2023-04-19T17:44:26.145Z,100159.06
2023-04-19T17:46:56.020Z,100157.91
2023-04-19T17:49:24.974Z,100158.41
2023-04-19T17:51:53.348Z,100156.22
2023-04-19T17:54:21.697Z,100161.78
2023-04-19T17:56:50.354Z,100160.97
2023-04-19T17:59:18.905Z,100168.63
2023-04-19T18:01:47.474Z,100171.22
2023-04-19T18:04:20.103Z,100163.97
2023-04-19T18:06:48.628Z,100161.53
2023-04-19T18:09:18.122Z,100168.63
2023-04-19T18:11:47.725Z,100165.38
2023-04-19T18:14:16.300Z,100170.63
2023-04-19T18:16:44.737Z,100172.69
2023-04-19T18:19:13.167Z,100166.25
2023-04-19T18:21:43.117Z,100170.44
2023-04-19T18:24:11.474Z,100168.25
2023-04-19T18:26:41.582Z,100181.19
2023-04-19T18:29:10.282Z,100175.88
2023-04-19T18:31:38.707Z,100172.66
2023-04-19T18:34:07.037Z,100181.66
2023-04-19T18:36:35.417Z,100181.34
2023-04-19T18:39:05.232Z,100177.75
2023-04-19T18:41:33.601Z,100188.06
2023-04-19T18:46:33.075Z,100192.44
2023-04-19T18:49:01.450Z,100188.19
2023-04-19T18:51:29.796Z,100189.25
2023-04-19T18:53:58.137Z,100186.81
2023-04-19T18:57:01.343Z,100193.72
2023-04-19T18:59:16.677Z,100198.47
2023-04-19T19:01:45.950Z,100198.47
2023-04-19T19:04:35.040Z,100194.22
2023-04-19T19:07:23.033Z,100197.91
2023-04-19T19:09:57.126Z,100200.00
2023-04-19T19:12:27.662Z,100198.94
2023-04-19T19:14:56.117Z,100197.09
2023-04-19T19:17:28.145Z,100202.41
2023-04-19T19:19:56.600Z,100201.59
2023-04-19T19:22:28.435Z,100206.59
2023-04-19T19:24:57.645Z,100205.19
2023-04-19T19:27:27.392Z,100209.94
2023-04-19T19:29:55.837Z,100215.72
2023-04-19T19:32:24.349Z,100210.63
2023-04-19T19:34:56.326Z,100211.69
2023-04-19T19:37:29.477Z,100218.03
2023-04-19T19:40:03.403Z,100221.50
2023-04-19T19:42:34.383Z,100212.72
2023-04-19T19:45:03.583Z,100211.69
2023-04-19T19:47:35.266Z,100217.22
2023-04-19T19:50:46.646Z,100225.22
2023-04-19T19:52:54.245Z,100221.41
2023-04-19T19:55:22.958Z,100218.97
2023-04-19T20:00:44.075Z,100223.13
2023-04-19T20:03:13.719Z,100220.13
2023-04-19T20:05:42.481Z,100230.19
2023-04-19T20:08:13.467Z,100236.97
2023-04-19T20:10:44.636Z,100236.88
2023-04-19T20:13:14.660Z,100247.50
2023-04-19T20:15:47.488Z,100240.00
2023-04-19T20:18:17.039Z,100239.66
2023-04-19T20:20:45.461Z,100244.63
2023-04-19T20:23:16.213Z,100242.66
2023-04-19T20:25:44.619Z,100246.56
2023-04-19T20:28:15.275Z,100245.44
2023-04-19T20:30:43.698Z,100241.38
2023-04-19T20:33:12.192Z,100252.69
2023-04-19T20:35:40.652Z,100244.38
2023-04-19T20:38:09.780Z,100247.75
2023-04-19T20:40:38.297Z,100241.28
2023-04-19T20:43:08.277Z,100243.00
2023-04-19T20:45:38.080Z,100250.00
2023-04-19T20:48:08.612Z,100251.25
2023-04-19T20:50:37.299Z,100252.16
2023-04-19T20:53:05.735Z,100249.97
2023-04-19T20:55:34.061Z,100246.94
2023-04-19T20:58:03.495Z,100245.78
2023-04-19T21:00:31.905Z,100248.34
2023-04-19T21:03:01.809Z,100248.78
2023-04-19T21:05:30.391Z,100249.22
2023-04-19T21:07:58.760Z,100248.88
2023-04-19T21:10:27.114Z,100246.91
2023-04-19T21:12:55.553Z,100242.88
2023-04-19T21:15:24.304Z,100227.88
2023-04-19T21:17:52.871Z,100237.66
2023-04-19T21:20:22.624Z,100229.34
2023-04-19T21:22:51.011Z,100232.47
2023-04-19T21:25:19.314Z,100230.28
2023-04-19T21:27:47.651Z,100226.44
2023-04-19T21:30:16.387Z,100233.00
2023-04-19T21:32:44.786Z,100230.22
2023-04-19T21:35:15.864Z,100223.53
2023-04-19T21:37:45.624Z,100225.81
2023-04-19T21:40:14.467Z,100232.59
2023-04-19T21:42:42.861Z,100218.75
2023-04-19T21:45:12.555Z,100217.59
2023-04-19T21:47:40.901Z,100224.38
2023-04-19T21:50:11.024Z,100215.28
2023-04-19T21:52:39.512Z,100219.16
2023-04-19T21:55:10.665Z,100225.72
2023-04-19T21:57:39.123Z,100209.09
2023-04-19T22:00:09.977Z,100211.97
2023-04-19T22:02:38.419Z,100209.75
2023-04-19T22:05:08.254Z,100213.84
2023-04-19T22:07:38.614Z,100206.34
2023-04-19T22:10:11.795Z,100211.28
2023-04-19T22:12:51.335Z,100208.28
2023-04-19T22:15:25.625Z,100199.97
2023-04-19T22:17:54.020Z,100199.59
2023-04-19T22:20:22.441Z,100197.41
2023-04-19T22:22:50.875Z,100196.22
2023-04-19T22:25:20.840Z,100187.91
2023-04-19T22:27:49.665Z,100189.19
2023-04-19T22:30:18.076Z,100189.84
2023-04-19T22:32:46.505Z,100190.25
2023-04-19T22:35:14.847Z,100182.78
2023-04-19T22:37:43.191Z,100188.53
2023-04-19T22:40:13.124Z,100174.94
2023-04-19T22:42:42.811Z,100178.00
2023-04-19T22:45:12.012Z,100173.38
2023-04-19T22:47:40.401Z,100168.53
2023-04-19T22:50:10.405Z,100170.56
2023-04-19T22:52:38.853Z,100164.91
2023-04-19T22:55:08.022Z,100156.59
2023-04-19T22:57:36.515Z,100163.16
2023-04-19T23:00:10.456Z,100156.69
2023-04-19T23:02:39.554Z,100151.03
2023-04-19T23:05:09.341Z,100148.81
2023-04-19T23:07:39.387Z,100156.16
2023-04-19T23:10:10.263Z,100142.38
2023-04-19T23:12:38.856Z,100147.47
2023-04-19T23:15:11.160Z,100135.97
2023-04-19T23:17:40.538Z,100129.47
2023-04-19T23:20:11.338Z,100133.13
2023-04-19T23:22:39.747Z,100128.09
2023-04-19T23:25:09.587Z,100126.91
2023-04-19T23:27:38.123Z,100122.84
2023-04-19T23:30:09.652Z,100124.09
2023-04-19T23:32:38.048Z,100128.81
2023-04-19T23:35:07.459Z,100119.69
2023-04-19T23:37:36.746Z,100117.47
2023-04-19T23:40:06.269Z,100117.69
2023-04-19T23:42:34.769Z,100112.78
2023-04-19T23:45:03.196Z,100116.69
2023-04-19T23:47:33.616Z,100103.13
2023-04-19T23:50:02.132Z,100098.25
2023-04-19T23:52:30.563Z,100101.09
2023-04-19T23:54:58.900Z,100101.56
2023-04-19T23:57:27.215Z,100094.06
2023-04-19T23:59:55.559Z,100088.97
